Weather reports worldwide

Advertisment
Blackpool/Squires Gate, United Kingdom (3318): temperature & dewpoint: 17.07.2019 09:00:00 - 23.07.2019 09:00:00 (BST)Blackpool/Squires Gate, United Kingdom (3318): wind speed & gusts: 17.07.2019 09:00:00 - 23.07.2019 09:00:00 (BST)Blackpool/Squires Gate, United Kingdom (3318): wind direction: 17.07.2019 09:00:00 - 23.07.2019 09:00:00 (BST)Blackpool/Squires Gate, United Kingdom (3318): precipitation: 17.07.2019 09:00:00 - 23.07.2019 09:00:00 (BST)
Date & Time tt [°C] td [°C] ff [km/h] ff [kn] fx [km/h] fx [kn] dd rr [mm]
23.07.2019 09:00:00 - - - - - - - -
23.07.2019 08:00:00 19,4 16,3 9 5 - - SSE 0,0
23.07.2019 07:00:00 17,3 16,0 11 6 - - SSE 0,0
23.07.2019 06:00:00 16,5 15,8 5 3 - - SE 0,0
23.07.2019 05:00:00 14,7 13,9 9 5 - - SE 0,0
23.07.2019 04:00:00 16,7 14,8 11 6 - - WSW 0,0
23.07.2019 03:00:00 18,6 15,6 21 11 - - WSW 0,0
23.07.2019 02:00:00 18,6 15,7 21 11 - - WSW 0,0
23.07.2019 01:00:00 18,5 15,6 22 12 - - WSW 0,0
23.07.2019 00:00:00 18,6 16,3 16 9 - - W 0,0
22.07.2019 23:00:00 18,6 16,3 16 9 - - SW 0,0
22.07.2019 22:00:00 18,7 16,1 22 12 - - SW 0,0
22.07.2019 21:00:00 19,2 16,2 24 13 - - WSW 0,0
22.07.2019 20:00:00 20,1 16,6 11 6 - - SW 0,0
22.07.2019 19:00:00 20,7 16,4 24 13 - - WSW 0,0
22.07.2019 18:00:00 20,9 16,8 29 16 - - SW 0,0
22.07.2019 17:00:00 21,6 16,6 22 12 - - SW 0,0
22.07.2019 16:00:00 22,1 17,4 21 11 - - WSW 0,0
22.07.2019 15:00:00 21,8 17,4 29 16 50 27 WSW 0,0
22.07.2019 14:00:00 21,7 17,0 39 21 55 30 WSW 0,0
22.07.2019 13:00:00 21,5 17,8 28 15 48 26 WSW 0,0
22.07.2019 12:00:00 20,6 16,5 41 22 67 36 W 0,0
22.07.2019 11:00:00 21,0 16,3 50 27 61 33 WSW 0,0
22.07.2019 10:00:00 19,7 16,5 34 18 59 32 WSW 0,0
22.07.2019 09:00:00 20,2 16,9 39 21 54 29 WSW 0,0
22.07.2019 08:00:00 19,0 16,0 42 23 70 38 WSW 0,0
22.07.2019 07:00:00 18,5 16,8 39 21 57 31 WSW 0,0
22.07.2019 06:00:00 18,2 16,8 37 20 50 27 WSW 0,0
22.07.2019 05:00:00 18,2 16,8 28 15 - - WSW 0,0
22.07.2019 04:00:00 18,4 17,2 28 15 - - WSW 0,0
22.07.2019 03:00:00 18,3 17,3 24 13 - - WSW 0,0
22.07.2019 02:00:00 18,5 17,2 34 18 - - SW 0,4
22.07.2019 01:00:00 17,9 17,2 31 17 48 26 SW 1,6
22.07.2019 00:00:00 16,6 16,1 28 15 - - SSW 4,2
21.07.2019 23:00:00 16,2 15,3 28 15 - - S 4,8
21.07.2019 22:00:00 16,6 14,7 29 16 - - S 1,8
21.07.2019 21:00:00 17,9 14,1 28 15 - - SSW 0,4
21.07.2019 20:00:00 19,7 14,5 18 10 - - SSW 0,0
21.07.2019 19:00:00 20,5 14,3 22 12 - - SSW 0,0
21.07.2019 18:00:00 20,0 13,8 16 9 - - SSW 0,0
21.07.2019 17:00:00 19,9 14,0 21 11 - - SSW 0,0
21.07.2019 16:00:00 19,6 14,1 22 12 - - SW 0,0
21.07.2019 15:00:00 19,8 14,2 26 14 - - SW 0,0
21.07.2019 14:00:00 19,5 14,1 24 13 - - SSW 0,0
21.07.2019 13:00:00 19,7 13,7 26 14 - - SSW 0,0
21.07.2019 12:00:00 18,7 13,3 18 10 - - SW 0,0
21.07.2019 11:00:00 19,5 13,3 26 14 - - WSW 0,0
21.07.2019 10:00:00 19,3 14,2 22 12 - - SW 0,0
21.07.2019 09:00:00 17,8 13,5 18 10 - - SW 0,0
21.07.2019 08:00:00 17,3 13,7 22 12 - - WSW 0,0
21.07.2019 07:00:00 16,8 13,5 22 12 - - WSW 0,0
21.07.2019 06:00:00 16,1 13,4 21 11 - - WSW 0,0
21.07.2019 05:00:00 16,2 13,3 16 9 - - WSW 0,0
21.07.2019 04:00:00 15,9 12,7 18 10 - - W 0,0
21.07.2019 03:00:00 15,7 12,6 21 11 - - W 0,0
21.07.2019 02:00:00 16,5 12,8 21 11 - - W 0,0
21.07.2019 01:00:00 16,7 12,3 22 12 48 26 W 0,0
21.07.2019 00:00:00 16,7 11,7 24 13 - - W 0,0
20.07.2019 23:00:00 16,5 12,1 22 12 - - W 0,0
20.07.2019 22:00:00 16,7 12,5 22 12 - - WNW 0,0
20.07.2019 21:00:00 16,8 12,2 21 11 - - WNW 0,0
20.07.2019 20:00:00 17,1 11,8 22 12 - - WNW 0,0
20.07.2019 19:00:00 17,7 12,3 24 13 - - WNW 0,0
20.07.2019 18:00:00 18,4 12,2 24 13 - - WNW 0,0
20.07.2019 17:00:00 18,4 12,1 28 15 - - WNW 0,0
20.07.2019 16:00:00 18,6 12,2 26 14 - - WNW 0,0
20.07.2019 15:00:00 18,0 12,8 29 16 55 30 WNW 0,0
20.07.2019 14:00:00 17,4 12,5 35 19 54 29 NW 0,0
20.07.2019 13:00:00 16,2 13,0 34 18 48 26 WNW 0,0
20.07.2019 12:00:00 16,0 13,8 29 16 - - WNW 0,0
20.07.2019 11:00:00 16,8 15,1 31 17 - - WNW 0,0
20.07.2019 10:00:00 15,8 14,8 29 16 - - W 0,0
20.07.2019 09:00:00 15,6 15,1 24 13 - - WSW 1,6
20.07.2019 08:00:00 15,7 14,4 24 13 - - SSW 0,4
20.07.2019 07:00:00 16,2 15,0 16 9 - - SSE 0,0
20.07.2019 06:00:00 15,9 14,7 16 9 - - SSE 0,0
20.07.2019 05:00:00 15,7 14,4 22 12 - - S 0,0
20.07.2019 04:00:00 16,3 14,8 16 9 - - S 0,0
20.07.2019 03:00:00 16,5 15,0 22 12 - - S 0,2
20.07.2019 02:00:00 16,9 15,5 16 9 - - S 0,4
20.07.2019 01:00:00 16,9 16,0 15 8 - - S 0,8
20.07.2019 00:00:00 17,9 15,3 22 12 - - SSW 0,0
19.07.2019 23:00:00 18,4 14,8 21 11 - - S 0,0
19.07.2019 22:00:00 18,6 14,9 24 13 - - SSW 0,0
19.07.2019 21:00:00 18,3 15,7 22 12 - - SSW 0,0
19.07.2019 20:00:00 18,9 15,7 24 13 - - SSW 0,0
19.07.2019 19:00:00 19,3 15,7 28 15 - - SW 0,0
19.07.2019 18:00:00 19,5 16,9 29 16 - - SSW 0,0
19.07.2019 17:00:00 19,2 17,6 24 13 - - S 0,0
19.07.2019 16:00:00 18,4 17,6 24 13 - - SSE 1,0
19.07.2019 15:00:00 18,0 15,3 29 16 - - SSE 0,0
19.07.2019 14:00:00 17,7 15,8 31 17 - - SSE 0,2
19.07.2019 13:00:00 15,9 14,9 28 15 - - SSE 0,2
19.07.2019 12:00:00 15,5 14,5 22 12 - - SSE 0,6
19.07.2019 11:00:00 14,7 13,9 22 12 - - SSE 1,2
19.07.2019 10:00:00 14,2 13,6 21 11 - - SSE 0,8
19.07.2019 09:00:00 13,8 13,3 16 9 - - SSE 2,2
19.07.2019 08:00:00 13,7 12,9 16 9 - - SSE 1,2
19.07.2019 07:00:00 14,6 12,2 16 9 - - S 0,0
19.07.2019 06:00:00 15,2 12,3 13 7 - - SSE 0,0
19.07.2019 05:00:00 16,4 13,0 13 7 - - W 0,0
19.07.2019 04:00:00 16,8 13,1 21 11 - - SW 0,0
19.07.2019 03:00:00 16,7 12,7 18 10 - - WSW 0,0
19.07.2019 02:00:00 16,1 12,5 22 12 - - WSW 0,0
19.07.2019 01:00:00 16,5 12,9 26 14 - - WSW 0,0
19.07.2019 00:00:00 17,0 12,6 24 13 - - WSW 0,0
18.07.2019 23:00:00 17,3 13,1 26 14 - - WSW 0,0
18.07.2019 22:00:00 17,3 12,6 29 16 - - WSW 0,0
18.07.2019 21:00:00 17,2 12,7 28 15 - - W 0,0
18.07.2019 20:00:00 17,6 12,2 29 16 - - W 0,0
18.07.2019 19:00:00 18,7 12,0 29 16 - - W 0,0
18.07.2019 18:00:00 19,4 12,3 28 15 - - W 0,0
18.07.2019 17:00:00 19,5 11,8 24 13 - - W 0,0
18.07.2019 16:00:00 18,9 11,8 29 16 - - W 0,0
18.07.2019 15:00:00 19,4 12,0 28 15 - - W 0,0
18.07.2019 14:00:00 18,5 11,8 29 16 - - W 0,0
18.07.2019 13:00:00 17,7 12,5 31 17 - - W 0,0
18.07.2019 12:00:00 17,7 12,5 34 18 - - W 0,0
18.07.2019 11:00:00 17,0 12,7 29 16 - - W 0,0
18.07.2019 10:00:00 15,9 12,6 28 15 - - W 0,0
18.07.2019 09:00:00 16,4 13,1 28 15 - - W 0,0
18.07.2019 08:00:00 15,6 12,4 21 11 - - W 0,0
18.07.2019 07:00:00 15,2 11,3 16 9 - - WNW 0,0
18.07.2019 06:00:00 15,0 12,4 15 8 - - WNW 0,0
18.07.2019 05:00:00 14,8 11,7 18 10 - - NW 0,0
18.07.2019 04:00:00 14,7 11,9 13 7 - - NW 0,0
18.07.2019 03:00:00 15,0 13,0 13 7 - - NNW 0,0
18.07.2019 02:00:00 15,5 14,4 21 11 - - NW 0,2
18.07.2019 01:00:00 16,3 15,7 24 13 - - WSW 0,8
18.07.2019 00:00:00 15,9 15,1 24 13 - - SSW 1,2
17.07.2019 23:00:00 16,8 13,7 18 10 - - S 0,0
17.07.2019 22:00:00 17,0 13,6 16 9 - - S 0,0
17.07.2019 21:00:00 17,2 13,3 21 11 - - SSW 0,0
17.07.2019 20:00:00 17,4 13,1 26 14 - - SSW 0,0
17.07.2019 19:00:00 17,5 12,6 26 14 - - SW 0,0
17.07.2019 18:00:00 17,8 13,1 26 14 - - SW 0,0
17.07.2019 17:00:00 17,6 13,6 21 11 - - WSW 0,0
17.07.2019 16:00:00 17,2 13,8 21 11 - - W 0,0
17.07.2019 15:00:00 17,7 14,8 16 9 - - W 0,2
17.07.2019 14:00:00 19,8 13,5 24 13 - - WSW 0,0
17.07.2019 13:00:00 21,1 13,1 26 14 - - WSW 0,0
17.07.2019 12:00:00 21,0 14,2 29 16 - - WSW 0,0
17.07.2019 11:00:00 20,2 13,4 24 13 - - SW 0,0
17.07.2019 10:00:00 19,9 13,6 22 12 - - SSW 0,0
17.07.2019 09:00:00 18,4 13,5 15 8 - - SSW 0,0

tt = temperature
td = dewpoint
ff = wind speed
fx = gusts
dd = wind direction
rr = precipitation

Next stations